SWA5193 KLAS-KTUS
Flight info
| Callsign | SWA5193 |
|---|---|
| Flight time | N/A |
| Altitude | 37000 |
| Route | RASLR3 ZAYNE DRK J11 PXR DINGO6 |
| Aircraft | B738/M-SDE2E3FGHIRWXY/LB1 |
Departure
| Time | 2026-05-04 17:42 |
|---|---|
| Airport | Harry Reid International Airport (KLAS) |
Arrival
| Time | N/A |
|---|---|
| Airport | Tucson International Airport (KTUS) |
| Time | Latitude | Longitude | Altitude | Speed | Heading |
|---|---|---|---|---|---|
| 2026-05-04 17:04 | 36.08122 | -115.14609 | 2113 ft | 0 kts | 254° |
| 2026-05-04 17:29 | 36.08128 | -115.14585 | 2112 ft | 4 kts | 248° |
| 2026-05-04 17:30 | 36.08164 | -115.14539 | 2110 ft | 2 kts | 156° |
| 2026-05-04 17:31 | 36.08165 | -115.14540 | 2110 ft | 0 kts | 155° |
| 2026-05-04 17:36 | 36.08162 | -115.14539 | 2110 ft | 4 kts | 156° |
| 2026-05-04 17:36 | 36.08113 | -115.14511 | 2112 ft | 8 kts | 155° |
| 2026-05-04 17:36 | 36.08061 | -115.14487 | 2113 ft | 8 kts | 172° |
| 2026-05-04 17:37 | 36.08056 | -115.14487 | 2112 ft | 0 kts | 174° |
| 2026-05-04 17:37 | 36.07956 | -115.14485 | 2114 ft | 24 kts | 180° |
| 2026-05-04 17:38 | 36.07837 | -115.14383 | 2120 ft | 23 kts | 107° |
| 2026-05-04 17:38 | 36.07826 | -115.14229 | 2117 ft | 22 kts | 91° |
| 2026-05-04 17:38 | 36.07825 | -115.14198 | 2116 ft | 22 kts | 92° |
| 2026-05-04 17:40 | 36.07825 | -115.14076 | 2118 ft | 20 kts | 85° |
| 2026-05-04 17:41 | 36.07826 | -115.13907 | 2123 ft | 20 kts | 90° |
| 2026-05-04 17:41 | 36.07759 | -115.13793 | 2127 ft | 19 kts | 173° |
| 2026-05-04 17:41 | 36.07642 | -115.13826 | 2122 ft | 18 kts | 248° |
| 2026-05-04 17:41 | 36.07641 | -115.14157 | 2123 ft | 79 kts | 269° |
| 2026-05-04 17:42 | 36.07637 | -115.15157 | 2127 ft | 156 kts | 269° |
| 2026-05-04 17:42 | 36.07688 | -115.16677 | 2513 ft | 196 kts | 270° |
| 2026-05-04 17:42 | 36.07747 | -115.18342 | 3404 ft | 202 kts | 267° |
| 2026-05-04 17:42 | 36.07741 | -115.20052 | 4473 ft | 207 kts | 262° |
| 2026-05-04 17:43 | 36.07517 | -115.21880 | 4796 ft | 234 kts | 257° |
| 2026-05-04 17:43 | 36.07190 | -115.23897 | 5356 ft | 249 kts | 250° |
| 2026-05-04 17:43 | 36.06333 | -115.25680 | 6308 ft | 246 kts | 223° |
| 2026-05-04 17:43 | 36.04895 | -115.26850 | 6835 ft | 263 kts | 201° |
| 2026-05-04 17:44 | 36.03172 | -115.27637 | 7549 ft | 271 kts | 199° |
| 2026-05-04 17:44 | 36.01431 | -115.28410 | 7925 ft | 271 kts | 196° |
| 2026-05-04 17:44 | 35.99585 | -115.28636 | 7990 ft | 272 kts | 169° |
| 2026-05-04 17:44 | 35.97863 | -115.27816 | 8253 ft | 275 kts | 149° |
| 2026-05-04 17:45 | 35.96372 | -115.26334 | 9057 ft | 281 kts | 140° |
| 2026-05-04 17:45 | 35.95003 | -115.24799 | 9981 ft | 282 kts | 140° |
| 2026-05-04 17:45 | 35.93486 | -115.23112 | 10635 ft | 298 kts | 141° |
| 2026-05-04 17:45 | 35.91920 | -115.21383 | 10829 ft | 325 kts | 140° |
| 2026-05-04 17:46 | 35.90455 | -115.19138 | 11096 ft | 352 kts | 123° |
| 2026-05-04 17:46 | 35.89267 | -115.16502 | 11715 ft | 361 kts | 122° |
| 2026-05-04 17:46 | 35.88032 | -115.13841 | 12553 ft | 363 kts | 124° |
| 2026-05-04 17:46 | 35.86779 | -115.11203 | 13247 ft | 370 kts | 123° |
| 2026-05-04 17:47 | 35.85782 | -115.08293 | 13836 ft | 383 kts | 111° |
| 2026-05-04 17:47 | 35.85022 | -115.05147 | 14528 ft | 390 kts | 109° |
| 2026-05-04 17:47 | 35.84306 | -115.01977 | 15129 ft | 397 kts | 109° |
| 2026-05-04 17:47 | 35.83571 | -114.98717 | 15781 ft | 402 kts | 110° |
| 2026-05-04 17:48 | 35.82822 | -114.95452 | 16390 ft | 408 kts | 110° |
| 2026-05-04 17:48 | 35.82036 | -114.92103 | 16972 ft | 415 kts | 111° |
| 2026-05-04 17:48 | 35.81239 | -114.88764 | 17555 ft | 420 kts | 111° |
| 2026-05-04 17:48 | 35.81218 | -114.88677 | 17573 ft | 420 kts | 111° |
| 2026-05-04 17:49 | 35.80641 | -114.86284 | 17957 ft | 425 kts | 111° |
| 2026-05-04 17:50 | 35.79809 | -114.82853 | 18513 ft | 430 kts | 111° |
| 2026-05-04 17:50 | 35.78955 | -114.79347 | 19108 ft | 435 kts | 111° |
| 2026-05-04 17:50 | 35.78102 | -114.75850 | 19672 ft | 439 kts | 111° |
| 2026-05-04 17:50 | 35.78024 | -114.75529 | 19722 ft | 439 kts | 112° |
| 2026-05-04 17:51 | 35.77912 | -114.75074 | 19788 ft | 440 kts | 112° |
| 2026-05-04 17:51 | 35.77210 | -114.72216 | 20181 ft | 444 kts | 112° |